sensor_id;sensor_type;location;lat;lon;timestamp;P1;durP1;ratioP1;P2;durP2;ratioP2
80237;SDS011;69544;42.138;24.742;2023-05-19T00:00:42;3.70;;;2.50;;
80237;SDS011;69544;42.138;24.742;2023-05-19T00:03:09;3.83;;;2.60;;
80237;SDS011;69544;42.138;24.742;2023-05-19T00:05:36;3.83;;;2.30;;
80237;SDS011;69544;42.138;24.742;2023-05-19T00:08:09;4.82;;;2.78;;
80237;SDS011;69544;42.138;24.742;2023-05-19T00:10:35;2.95;;;2.22;;
80237;SDS011;69544;42.138;24.742;2023-05-19T00:13:02;3.35;;;2.20;;
80237;SDS011;69544;42.138;24.742;2023-05-19T00:15:28;3.30;;;2.17;;
80237;SDS011;69544;42.138;24.742;2023-05-19T00:17:54;3.20;;;2.50;;
80237;SDS011;69544;42.138;24.742;2023-05-19T00:20:20;2.95;;;2.30;;
80237;SDS011;69544;42.138;24.742;2023-05-19T00:22:46;3.80;;;2.70;;
80237;SDS011;69544;42.138;24.742;2023-05-19T00:25:12;2.58;;;2.30;;
80237;SDS011;69544;42.138;24.742;2023-05-19T00:27:38;2.83;;;2.20;;
80237;SDS011;69544;42.138;24.742;2023-05-19T00:30:03;4.50;;;2.63;;
80237;SDS011;69544;42.138;24.742;2023-05-19T00:32:29;2.97;;;2.30;;
80237;SDS011;69544;42.138;24.742;2023-05-19T00:34:55;3.95;;;2.60;;
80237;SDS011;69544;42.138;24.742;2023-05-19T00:37:21;3.63;;;2.40;;
80237;SDS011;69544;42.138;24.742;2023-05-19T00:39:47;3.53;;;2.30;;
80237;SDS011;69544;42.138;24.742;2023-05-19T00:42:13;5.78;;;2.33;;
80237;SDS011;69544;42.138;24.742;2023-05-19T00:44:39;2.65;;;2.17;;
80237;SDS011;69544;42.138;24.742;2023-05-19T00:47:05;2.90;;;2.50;;
80237;SDS011;69544;42.138;24.742;2023-05-19T00:49:32;3.17;;;2.40;;
80237;SDS011;69544;42.138;24.742;2023-05-19T00:51:58;3.60;;;2.40;;
80237;SDS011;69544;42.138;24.742;2023-05-19T00:54:25;3.35;;;2.33;;
80237;SDS011;69544;42.138;24.742;2023-05-19T00:56:52;3.22;;;2.42;;
80237;SDS011;69544;42.138;24.742;2023-05-19T00:59:19;3.53;;;2.30;;
80237;SDS011;69544;42.138;24.742;2023-05-19T01:01:45;3.10;;;2.38;;
80237;SDS011;69544;42.138;24.742;2023-05-19T01:04:14;2.33;;;2.10;;
80237;SDS011;69544;42.138;24.742;2023-05-19T01:06:45;3.78;;;2.58;;
80237;SDS011;69544;42.138;24.742;2023-05-19T01:09:19;3.40;;;2.10;;
80237;SDS011;69544;42.138;24.742;2023-05-19T01:11:46;4.13;;;2.40;;
80237;SDS011;69544;42.138;24.742;2023-05-19T01:14:12;5.25;;;2.53;;
80237;SDS011;69544;42.138;24.742;2023-05-19T01:16:39;3.45;;;2.38;;
80237;SDS011;69544;42.138;24.742;2023-05-19T01:22:05;3.92;;;2.45;;
80237;SDS011;69544;42.138;24.742;2023-05-19T01:30:44;3.28;;;2.22;;
80237;SDS011;69544;42.138;24.742;2023-05-19T01:33:16;3.88;;;2.20;;
80237;SDS011;69544;42.138;24.742;2023-05-19T01:35:43;3.20;;;2.30;;
80237;SDS011;69544;42.138;24.742;2023-05-19T01:38:11;3.08;;;2.05;;
80237;SDS011;69544;42.138;24.742;2023-05-19T01:40:40;4.00;;;2.50;;
80237;SDS011;69544;42.138;24.742;2023-05-19T01:43:08;4.85;;;2.20;;
80237;SDS011;69544;42.138;24.742;2023-05-19T01:45:35;2.25;;;2.05;;
80237;SDS011;69544;42.138;24.742;2023-05-19T01:48:03;3.13;;;2.17;;
80237;SDS011;69544;42.138;24.742;2023-05-19T01:50:29;3.42;;;2.40;;
80237;SDS011;69544;42.138;24.742;2023-05-19T01:52:56;3.42;;;2.13;;
80237;SDS011;69544;42.138;24.742;2023-05-19T01:55:22;4.57;;;2.33;;
80237;SDS011;69544;42.138;24.742;2023-05-19T02:00:30;4.03;;;2.22;;
80237;SDS011;69544;42.138;24.742;2023-05-19T02:03:25;4.25;;;2.40;;
80237;SDS011;69544;42.138;24.742;2023-05-19T02:05:54;3.17;;;2.43;;
80237;SDS011;69544;42.138;24.742;2023-05-19T02:08:29;4.20;;;2.45;;
80237;SDS011;69544;42.138;24.742;2023-05-19T02:11:06;2.88;;;2.30;;
80237;SDS011;69544;42.138;24.742;2023-05-19T02:13:38;5.03;;;2.38;;
80237;SDS011;69544;42.138;24.742;2023-05-19T02:16:08;2.72;;;2.33;;
80237;SDS011;69544;42.138;24.742;2023-05-19T02:18:36;4.75;;;2.25;;
80237;SDS011;69544;42.138;24.742;2023-05-19T02:21:03;4.07;;;2.47;;
80237;SDS011;69544;42.138;24.742;2023-05-19T02:23:29;3.30;;;2.42;;
80237;SDS011;69544;42.138;24.742;2023-05-19T02:25:55;2.95;;;2.20;;
80237;SDS011;69544;42.138;24.742;2023-05-19T02:28:21;2.45;;;2.03;;
80237;SDS011;69544;42.138;24.742;2023-05-19T02:30:47;4.47;;;2.30;;
80237;SDS011;69544;42.138;24.742;2023-05-19T02:33:12;2.70;;;2.30;;
80237;SDS011;69544;42.138;24.742;2023-05-19T02:35:38;2.50;;;2.10;;
80237;SDS011;69544;42.138;24.742;2023-05-19T02:38:03;2.88;;;2.22;;
80237;SDS011;69544;42.138;24.742;2023-05-19T02:40:29;3.17;;;2.50;;
80237;SDS011;69544;42.138;24.742;2023-05-19T02:42:55;2.75;;;2.30;;
80237;SDS011;69544;42.138;24.742;2023-05-19T02:45:21;3.80;;;2.35;;
80237;SDS011;69544;42.138;24.742;2023-05-19T02:47:46;5.72;;;2.60;;
80237;SDS011;69544;42.138;24.742;2023-05-19T02:50:12;2.75;;;2.35;;
80237;SDS011;69544;42.138;24.742;2023-05-19T02:52:37;2.47;;;2.10;;
80237;SDS011;69544;42.138;24.742;2023-05-19T02:55:03;2.55;;;2.20;;
80237;SDS011;69544;42.138;24.742;2023-05-19T02:57:31;2.33;;;2.13;;
80237;SDS011;69544;42.138;24.742;2023-05-19T02:59:58;2.55;;;2.08;;
80237;SDS011;69544;42.138;24.742;2023-05-19T03:02:24;3.55;;;2.35;;
80237;SDS011;69544;42.138;24.742;2023-05-19T03:04:50;3.20;;;2.22;;
80237;SDS011;69544;42.138;24.742;2023-05-19T03:07:16;2.85;;;2.28;;
80237;SDS011;69544;42.138;24.742;2023-05-19T03:09:41;3.22;;;2.47;;
80237;SDS011;69544;42.138;24.742;2023-05-19T03:12:07;3.58;;;2.25;;
80237;SDS011;69544;42.138;24.742;2023-05-19T03:14:33;3.78;;;2.30;;
80237;SDS011;69544;42.138;24.742;2023-05-19T03:17:02;2.40;;;2.20;;
80237;SDS011;69544;42.138;24.742;2023-05-19T03:19:28;2.20;;;2.00;;
80237;SDS011;69544;42.138;24.742;2023-05-19T03:21:56;3.22;;;2.35;;
80237;SDS011;69544;42.138;24.742;2023-05-19T03:24:22;4.85;;;2.50;;
80237;SDS011;69544;42.138;24.742;2023-05-19T03:26:47;2.85;;;2.05;;
80237;SDS011;69544;42.138;24.742;2023-05-19T03:29:13;5.40;;;2.28;;
80237;SDS011;69544;42.138;24.742;2023-05-19T03:31:42;3.45;;;2.38;;
80237;SDS011;69544;42.138;24.742;2023-05-19T03:34:07;2.65;;;2.10;;
80237;SDS011;69544;42.138;24.742;2023-05-19T03:36:33;2.85;;;2.20;;
80237;SDS011;69544;42.138;24.742;2023-05-19T03:39:03;2.95;;;2.17;;
80237;SDS011;69544;42.138;24.742;2023-05-19T03:41:32;2.90;;;2.22;;
80237;SDS011;69544;42.138;24.742;2023-05-19T03:43:57;4.03;;;2.60;;
80237;SDS011;69544;42.138;24.742;2023-05-19T03:46:23;4.18;;;2.40;;
80237;SDS011;69544;42.138;24.742;2023-05-19T03:48:49;4.80;;;2.28;;
80237;SDS011;69544;42.138;24.742;2023-05-19T03:51:15;5.32;;;2.40;;
80237;SDS011;69544;42.138;24.742;2023-05-19T03:53:41;2.55;;;2.25;;
80237;SDS011;69544;42.138;24.742;2023-05-19T03:56:06;2.92;;;2.50;;
80237;SDS011;69544;42.138;24.742;2023-05-19T03:58:32;2.42;;;2.15;;
80237;SDS011;69544;42.138;24.742;2023-05-19T04:00:58;3.88;;;2.20;;
80237;SDS011;69544;42.138;24.742;2023-05-19T04:03:24;3.00;;;2.15;;
80237;SDS011;69544;42.138;24.742;2023-05-19T04:05:50;2.72;;;2.22;;
80237;SDS011;69544;42.138;24.742;2023-05-19T04:08:16;3.63;;;2.40;;
80237;SDS011;69544;42.138;24.742;2023-05-19T04:10:42;2.95;;;2.28;;
80237;SDS011;69544;42.138;24.742;2023-05-19T04:13:08;3.08;;;2.30;;
80237;SDS011;69544;42.138;24.742;2023-05-19T04:15:33;5.10;;;2.53;;
80237;SDS011;69544;42.138;24.742;2023-05-19T04:17:59;2.95;;;2.08;;
80237;SDS011;69544;42.138;24.742;2023-05-19T04:20:25;3.90;;;2.40;;
80237;SDS011;69544;42.138;24.742;2023-05-19T04:22:51;2.90;;;2.50;;
80237;SDS011;69544;42.138;24.742;2023-05-19T04:25:16;4.75;;;2.97;;
80237;SDS011;69544;42.138;24.742;2023-05-19T04:27:44;4.28;;;3.00;;
80237;SDS011;69544;42.138;24.742;2023-05-19T04:30:09;14.73;;;3.63;;
80237;SDS011;69544;42.138;24.742;2023-05-19T04:32:36;6.65;;;3.83;;
80237;SDS011;69544;42.138;24.742;2023-05-19T04:35:03;6.65;;;3.50;;
80237;SDS011;69544;42.138;24.742;2023-05-19T04:37:29;8.70;;;3.60;;
80237;SDS011;69544;42.138;24.742;2023-05-19T04:39:55;7.35;;;3.42;;
80237;SDS011;69544;42.138;24.742;2023-05-19T04:42:21;8.02;;;3.47;;
80237;SDS011;69544;42.138;24.742;2023-05-19T04:44:50;6.97;;;3.42;;
80237;SDS011;69544;42.138;24.742;2023-05-19T04:47:15;6.65;;;4.25;;
80237;SDS011;69544;42.138;24.742;2023-05-19T04:49:42;6.95;;;3.75;;
80237;SDS011;69544;42.138;24.742;2023-05-19T04:52:09;8.30;;;4.00;;
80237;SDS011;69544;42.138;24.742;2023-05-19T04:54:36;12.30;;;4.22;;
80237;SDS011;69544;42.138;24.742;2023-05-19T04:57:02;10.80;;;4.30;;
80237;SDS011;69544;42.138;24.742;2023-05-19T04:59:28;8.68;;;4.38;;
80237;SDS011;69544;42.138;24.742;2023-05-19T05:01:54;10.07;;;3.90;;
80237;SDS011;69544;42.138;24.742;2023-05-19T05:04:21;14.20;;;4.00;;
80237;SDS011;69544;42.138;24.742;2023-05-19T05:06:47;7.63;;;4.07;;
80237;SDS011;69544;42.138;24.742;2023-05-19T05:09:13;6.43;;;3.78;;
80237;SDS011;69544;42.138;24.742;2023-05-19T05:11:40;10.30;;;3.97;;
80237;SDS011;69544;42.138;24.742;2023-05-19T05:14:06;7.15;;;3.90;;
80237;SDS011;69544;42.138;24.742;2023-05-19T05:16:32;11.38;;;3.90;;
80237;SDS011;69544;42.138;24.742;2023-05-19T05:18:59;6.78;;;4.05;;
80237;SDS011;69544;42.138;24.742;2023-05-19T05:21:26;9.68;;;4.30;;
80237;SDS011;69544;42.138;24.742;2023-05-19T05:23:52;10.80;;;4.60;;
80237;SDS011;69544;42.138;24.742;2023-05-19T05:26:18;8.25;;;4.13;;
80237;SDS011;69544;42.138;24.742;2023-05-19T05:28:48;10.77;;;4.22;;
80237;SDS011;69544;42.138;24.742;2023-05-19T05:31:14;7.30;;;4.53;;
80237;SDS011;69544;42.138;24.742;2023-05-19T05:33:42;9.98;;;4.50;;
80237;SDS011;69544;42.138;24.742;2023-05-19T05:36:08;14.63;;;4.78;;
80237;SDS011;69544;42.138;24.742;2023-05-19T05:38:34;9.07;;;4.35;;
80237;SDS011;69544;42.138;24.742;2023-05-19T05:41:00;10.27;;;4.32;;
80237;SDS011;69544;42.138;24.742;2023-05-19T05:43:27;7.75;;;4.30;;
80237;SDS011;69544;42.138;24.742;2023-05-19T05:45:53;8.57;;;4.32;;
80237;SDS011;69544;42.138;24.742;2023-05-19T05:48:19;10.13;;;4.60;;
80237;SDS011;69544;42.138;24.742;2023-05-19T05:50:45;9.80;;;4.35;;
80237;SDS011;69544;42.138;24.742;2023-05-19T05:53:16;6.88;;;4.25;;
80237;SDS011;69544;42.138;24.742;2023-05-19T05:55:43;11.65;;;4.40;;
80237;SDS011;69544;42.138;24.742;2023-05-19T05:58:12;6.47;;;4.38;;
80237;SDS011;69544;42.138;24.742;2023-05-19T06:00:39;11.02;;;4.35;;
80237;SDS011;69544;42.138;24.742;2023-05-19T06:03:09;8.00;;;4.63;;
80237;SDS011;69544;42.138;24.742;2023-05-19T06:05:35;11.45;;;4.22;;
80237;SDS011;69544;42.138;24.742;2023-05-19T06:08:02;8.38;;;4.40;;
80237;SDS011;69544;42.138;24.742;2023-05-19T06:10:28;8.05;;;4.10;;
80237;SDS011;69544;42.138;24.742;2023-05-19T06:12:53;7.93;;;4.22;;
80237;SDS011;69544;42.138;24.742;2023-05-19T06:15:20;9.52;;;4.15;;
80237;SDS011;69544;42.138;24.742;2023-05-19T06:17:46;6.47;;;4.22;;
80237;SDS011;69544;42.138;24.742;2023-05-19T06:20:11;6.18;;;3.92;;
80237;SDS011;69544;42.138;24.742;2023-05-19T06:22:37;5.45;;;4.05;;
80237;SDS011;69544;42.138;24.742;2023-05-19T06:25:04;5.43;;;3.75;;
80237;SDS011;69544;42.138;24.742;2023-05-19T06:27:30;8.10;;;4.30;;
80237;SDS011;69544;42.138;24.742;2023-05-19T06:29:56;8.25;;;4.22;;
80237;SDS011;69544;42.138;24.742;2023-05-19T06:32:22;8.55;;;4.18;;
80237;SDS011;69544;42.138;24.742;2023-05-19T06:34:48;7.38;;;4.45;;
80237;SDS011;69544;42.138;24.742;2023-05-19T06:37:19;5.50;;;4.13;;
80237;SDS011;69544;42.138;24.742;2023-05-19T06:39:46;6.55;;;4.20;;
80237;SDS011;69544;42.138;24.742;2023-05-19T06:42:15;5.32;;;3.88;;
80237;SDS011;69544;42.138;24.742;2023-05-19T06:44:41;6.85;;;3.70;;
80237;SDS011;69544;42.138;24.742;2023-05-19T06:47:06;5.93;;;4.20;;
80237;SDS011;69544;42.138;24.742;2023-05-19T06:49:32;7.85;;;4.15;;
80237;SDS011;69544;42.138;24.742;2023-05-19T06:51:57;7.45;;;4.28;;
80237;SDS011;69544;42.138;24.742;2023-05-19T06:54:23;7.07;;;4.63;;
80237;SDS011;69544;42.138;24.742;2023-05-19T06:56:49;6.15;;;3.97;;
80237;SDS011;69544;42.138;24.742;2023-05-19T06:59:14;6.30;;;4.30;;
80237;SDS011;69544;42.138;24.742;2023-05-19T07:01:40;5.90;;;4.22;;
80237;SDS011;69544;42.138;24.742;2023-05-19T07:04:06;9.35;;;4.32;;
80237;SDS011;69544;42.138;24.742;2023-05-19T07:06:31;6.18;;;3.97;;
80237;SDS011;69544;42.138;24.742;2023-05-19T07:08:57;7.13;;;3.92;;
80237;SDS011;69544;42.138;24.742;2023-05-19T07:11:23;7.10;;;4.13;;
80237;SDS011;69544;42.138;24.742;2023-05-19T07:13:50;7.50;;;4.18;;
80237;SDS011;69544;42.138;24.742;2023-05-19T07:16:15;8.38;;;4.55;;
80237;SDS011;69544;42.138;24.742;2023-05-19T07:18:41;6.82;;;4.00;;
80237;SDS011;69544;42.138;24.742;2023-05-19T07:21:07;6.00;;;4.10;;
80237;SDS011;69544;42.138;24.742;2023-05-19T07:23:32;6.63;;;3.90;;
80237;SDS011;69544;42.138;24.742;2023-05-19T07:25:58;7.63;;;4.30;;
80237;SDS011;69544;42.138;24.742;2023-05-19T07:28:24;6.32;;;4.10;;
80237;SDS011;69544;42.138;24.742;2023-05-19T07:30:49;5.30;;;3.88;;
80237;SDS011;69544;42.138;24.742;2023-05-19T07:33:15;5.68;;;4.00;;
80237;SDS011;69544;42.138;24.742;2023-05-19T07:35:41;6.35;;;3.97;;
80237;SDS011;69544;42.138;24.742;2023-05-19T07:38:08;6.00;;;4.18;;
80237;SDS011;69544;42.138;24.742;2023-05-19T07:40:34;5.93;;;3.75;;
80237;SDS011;69544;42.138;24.742;2023-05-19T07:42:59;9.27;;;4.25;;
80237;SDS011;69544;42.138;24.742;2023-05-19T07:45:25;5.38;;;4.10;;
80237;SDS011;69544;42.138;24.742;2023-05-19T07:47:52;6.68;;;4.38;;
80237;SDS011;69544;42.138;24.742;2023-05-19T07:50:18;5.22;;;3.90;;
80237;SDS011;69544;42.138;24.742;2023-05-19T07:52:44;6.82;;;4.30;;
80237;SDS011;69544;42.138;24.742;2023-05-19T07:55:09;7.93;;;4.22;;
80237;SDS011;69544;42.138;24.742;2023-05-19T07:57:35;8.05;;;4.38;;
80237;SDS011;69544;42.138;24.742;2023-05-19T08:00:01;7.75;;;4.30;;
80237;SDS011;69544;42.138;24.742;2023-05-19T08:02:31;6.78;;;4.15;;
80237;SDS011;69544;42.138;24.742;2023-05-19T08:04:57;6.97;;;4.43;;
80237;SDS011;69544;42.138;24.742;2023-05-19T08:07:23;6.78;;;4.10;;
80237;SDS011;69544;42.138;24.742;2023-05-19T08:09:49;7.05;;;4.20;;
80237;SDS011;69544;42.138;24.742;2023-05-19T08:12:14;6.88;;;4.20;;
80237;SDS011;69544;42.138;24.742;2023-05-19T08:14:40;4.90;;;3.78;;
80237;SDS011;69544;42.138;24.742;2023-05-19T08:17:06;6.07;;;4.28;;
80237;SDS011;69544;42.138;24.742;2023-05-19T08:19:32;8.38;;;4.13;;
80237;SDS011;69544;42.138;24.742;2023-05-19T08:21:57;5.60;;;3.90;;
80237;SDS011;69544;42.138;24.742;2023-05-19T08:24:25;7.10;;;4.18;;
80237;SDS011;69544;42.138;24.742;2023-05-19T08:26:53;6.13;;;4.10;;
80237;SDS011;69544;42.138;24.742;2023-05-19T08:29:19;7.68;;;4.50;;
80237;SDS011;69544;42.138;24.742;2023-05-19T08:31:45;8.95;;;4.20;;
80237;SDS011;69544;42.138;24.742;2023-05-19T08:34:11;9.80;;;4.30;;
80237;SDS011;69544;42.138;24.742;2023-05-19T08:36:36;5.75;;;4.13;;
80237;SDS011;69544;42.138;24.742;2023-05-19T08:39:03;8.15;;;4.00;;
80237;SDS011;69544;42.138;24.742;2023-05-19T08:41:28;16.90;;;4.40;;
80237;SDS011;69544;42.138;24.742;2023-05-19T08:43:54;6.88;;;4.03;;
80237;SDS011;69544;42.138;24.742;2023-05-19T08:46:20;6.90;;;3.83;;
80237;SDS011;69544;42.138;24.742;2023-05-19T08:48:48;8.15;;;4.30;;
80237;SDS011;69544;42.138;24.742;2023-05-19T08:54:13;7.65;;;4.18;;
80237;SDS011;69544;42.138;24.742;2023-05-19T08:56:41;8.27;;;4.20;;
80237;SDS011;69544;42.138;24.742;2023-05-19T08:59:08;7.70;;;4.15;;
80237;SDS011;69544;42.138;24.742;2023-05-19T09:01:35;5.95;;;4.18;;
80237;SDS011;69544;42.138;24.742;2023-05-19T09:04:01;6.85;;;4.18;;
80237;SDS011;69544;42.138;24.742;2023-05-19T09:06:28;7.07;;;4.30;;
80237;SDS011;69544;42.138;24.742;2023-05-19T09:08:56;6.30;;;4.20;;
80237;SDS011;69544;42.138;24.742;2023-05-19T09:11:22;8.52;;;4.13;;
80237;SDS011;69544;42.138;24.742;2023-05-19T09:13:48;7.55;;;4.28;;
80237;SDS011;69544;42.138;24.742;2023-05-19T09:16:14;7.55;;;4.63;;
80237;SDS011;69544;42.138;24.742;2023-05-19T09:18:52;5.95;;;4.10;;
80237;SDS011;69544;42.138;24.742;2023-05-19T09:21:20;7.28;;;3.90;;
80237;SDS011;69544;42.138;24.742;2023-05-19T09:24:06;6.78;;;4.03;;
80237;SDS011;69544;42.138;24.742;2023-05-19T09:26:36;5.70;;;4.10;;
80237;SDS011;69544;42.138;24.742;2023-05-19T09:29:10;6.43;;;4.05;;
80237;SDS011;69544;42.138;24.742;2023-05-19T09:31:36;5.15;;;3.78;;
80237;SDS011;69544;42.138;24.742;2023-05-19T09:34:02;7.05;;;4.30;;
80237;SDS011;69544;42.138;24.742;2023-05-19T09:36:28;6.07;;;4.00;;
80237;SDS011;69544;42.138;24.742;2023-05-19T09:38:55;6.32;;;4.10;;
80237;SDS011;69544;42.138;24.742;2023-05-19T09:41:20;5.97;;;4.03;;
80237;SDS011;69544;42.138;24.742;2023-05-19T09:43:53;6.60;;;4.10;;
80237;SDS011;69544;42.138;24.742;2023-05-19T09:46:20;6.10;;;3.90;;
80237;SDS011;69544;42.138;24.742;2023-05-19T09:48:58;10.45;;;4.30;;
80237;SDS011;69544;42.138;24.742;2023-05-19T09:51:24;7.82;;;4.55;;
80237;SDS011;69544;42.138;24.742;2023-05-19T09:53:50;6.70;;;4.13;;
80237;SDS011;69544;42.138;24.742;2023-05-19T09:56:17;6.25;;;4.03;;
80237;SDS011;69544;42.138;24.742;2023-05-19T09:58:47;6.78;;;4.20;;
80237;SDS011;69544;42.138;24.742;2023-05-19T10:01:13;6.10;;;4.05;;
80237;SDS011;69544;42.138;24.742;2023-05-19T10:03:39;6.38;;;4.00;;
80237;SDS011;69544;42.138;24.742;2023-05-19T10:06:06;8.48;;;4.25;;
80237;SDS011;69544;42.138;24.742;2023-05-19T10:08:33;6.78;;;4.10;;
80237;SDS011;69544;42.138;24.742;2023-05-19T10:10:59;6.15;;;4.03;;
80237;SDS011;69544;42.138;24.742;2023-05-19T10:13:26;5.18;;;3.80;;
80237;SDS011;69544;42.138;24.742;2023-05-19T10:15:53;5.70;;;4.10;;
80237;SDS011;69544;42.138;24.742;2023-05-19T10:18:20;5.95;;;3.90;;
80237;SDS011;69544;42.138;24.742;2023-05-19T10:20:49;5.93;;;4.20;;
80237;SDS011;69544;42.138;24.742;2023-05-19T10:23:17;5.75;;;4.00;;
80237;SDS011;69544;42.138;24.742;2023-05-19T10:25:42;6.35;;;3.95;;
80237;SDS011;69544;42.138;24.742;2023-05-19T10:28:12;6.93;;;3.95;;
80237;SDS011;69544;42.138;24.742;2023-05-19T10:30:43;7.63;;;4.35;;
80237;SDS011;69544;42.138;24.742;2023-05-19T10:33:11;5.72;;;4.22;;
80237;SDS011;69544;42.138;24.742;2023-05-19T10:40:52;6.13;;;4.13;;
80237;SDS011;69544;42.138;24.742;2023-05-19T10:43:34;5.97;;;4.00;;
80237;SDS011;69544;42.138;24.742;2023-05-19T10:46:23;6.47;;;4.28;;
80237;SDS011;69544;42.138;24.742;2023-05-19T10:48:52;5.78;;;4.05;;
80237;SDS011;69544;42.138;24.742;2023-05-19T10:51:18;5.50;;;3.85;;
80237;SDS011;69544;42.138;24.742;2023-05-19T10:53:43;5.80;;;4.20;;
80237;SDS011;69544;42.138;24.742;2023-05-19T10:56:32;6.38;;;3.97;;
80237;SDS011;69544;42.138;24.742;2023-05-19T10:59:00;6.32;;;4.20;;
80237;SDS011;69544;42.138;24.742;2023-05-19T11:01:35;5.80;;;3.83;;
80237;SDS011;69544;42.138;24.742;2023-05-19T11:04:07;7.00;;;3.83;;
80237;SDS011;69544;42.138;24.742;2023-05-19T11:06:37;8.45;;;4.10;;
80237;SDS011;69544;42.138;24.742;2023-05-19T11:09:14;6.53;;;4.10;;
80237;SDS011;69544;42.138;24.742;2023-05-19T11:11:46;5.45;;;3.88;;
80237;SDS011;69544;42.138;24.742;2023-05-19T11:14:14;5.30;;;4.20;;
80237;SDS011;69544;42.138;24.742;2023-05-19T11:16:45;6.50;;;4.38;;
80237;SDS011;69544;42.138;24.742;2023-05-19T11:19:18;6.55;;;4.00;;
80237;SDS011;69544;42.138;24.742;2023-05-19T11:22:11;5.68;;;3.90;;
80237;SDS011;69544;42.138;24.742;2023-05-19T11:24:44;5.72;;;3.90;;
80237;SDS011;69544;42.138;24.742;2023-05-19T11:27:18;5.53;;;3.80;;
80237;SDS011;69544;42.138;24.742;2023-05-19T11:30:15;6.35;;;3.92;;
80237;SDS011;69544;42.138;24.742;2023-05-19T11:32:45;5.57;;;3.90;;
80237;SDS011;69544;42.138;24.742;2023-05-19T11:35:12;5.22;;;3.75;;
80237;SDS011;69544;42.138;24.742;2023-05-19T11:37:38;5.68;;;4.13;;
80237;SDS011;69544;42.138;24.742;2023-05-19T11:40:06;5.25;;;3.90;;
80237;SDS011;69544;42.138;24.742;2023-05-19T11:42:33;5.38;;;3.95;;
80237;SDS011;69544;42.138;24.742;2023-05-19T11:45:00;5.72;;;4.25;;
80237;SDS011;69544;42.138;24.742;2023-05-19T11:47:26;7.43;;;3.90;;
80237;SDS011;69544;42.138;24.742;2023-05-19T11:49:53;5.97;;;4.00;;
80237;SDS011;69544;42.138;24.742;2023-05-19T11:52:23;4.57;;;3.83;;
80237;SDS011;69544;42.138;24.742;2023-05-19T11:54:49;5.63;;;3.90;;
80237;SDS011;69544;42.138;24.742;2023-05-19T11:57:15;5.25;;;3.65;;
80237;SDS011;69544;42.138;24.742;2023-05-19T11:59:41;5.68;;;4.05;;
80237;SDS011;69544;42.138;24.742;2023-05-19T12:02:17;5.20;;;3.63;;
80237;SDS011;69544;42.138;24.742;2023-05-19T12:04:43;5.30;;;4.00;;
80237;SDS011;69544;42.138;24.742;2023-05-19T12:07:10;5.05;;;3.75;;
80237;SDS011;69544;42.138;24.742;2023-05-19T12:09:37;6.80;;;3.70;;
80237;SDS011;69544;42.138;24.742;2023-05-19T12:12:03;5.25;;;3.75;;
80237;SDS011;69544;42.138;24.742;2023-05-19T12:14:29;5.85;;;3.88;;
80237;SDS011;69544;42.138;24.742;2023-05-19T12:16:55;6.22;;;3.90;;
80237;SDS011;69544;42.138;24.742;2023-05-19T12:19:24;5.70;;;3.97;;
80237;SDS011;69544;42.138;24.742;2023-05-19T12:21:51;5.05;;;3.90;;
80237;SDS011;69544;42.138;24.742;2023-05-19T12:24:18;5.70;;;3.85;;
80237;SDS011;69544;42.138;24.742;2023-05-19T12:26:44;5.38;;;3.85;;
80237;SDS011;69544;42.138;24.742;2023-05-19T12:29:11;5.70;;;3.70;;
80237;SDS011;69544;42.138;24.742;2023-05-19T12:31:37;5.47;;;3.85;;
80237;SDS011;69544;42.138;24.742;2023-05-19T12:34:03;6.15;;;3.88;;
80237;SDS011;69544;42.138;24.742;2023-05-19T12:36:30;4.82;;;3.70;;
80237;SDS011;69544;42.138;24.742;2023-05-19T12:38:56;5.10;;;3.30;;
80237;SDS011;69544;42.138;24.742;2023-05-19T12:41:25;6.10;;;3.83;;
80237;SDS011;69544;42.138;24.742;2023-05-19T12:46:19;5.28;;;3.83;;
80237;SDS011;69544;42.138;24.742;2023-05-19T12:48:46;6.55;;;3.65;;
80237;SDS011;69544;42.138;24.742;2023-05-19T12:51:15;5.50;;;3.50;;
80237;SDS011;69544;42.138;24.742;2023-05-19T12:53:45;5.55;;;3.78;;
80237;SDS011;69544;42.138;24.742;2023-05-19T12:56:13;5.03;;;3.50;;
80237;SDS011;69544;42.138;24.742;2023-05-19T12:58:40;4.50;;;3.47;;
80237;SDS011;69544;42.138;24.742;2023-05-19T13:01:06;5.63;;;3.58;;
80237;SDS011;69544;42.138;24.742;2023-05-19T13:03:39;6.05;;;3.67;;
80237;SDS011;69544;42.138;24.742;2023-05-19T13:06:06;5.97;;;3.85;;
80237;SDS011;69544;42.138;24.742;2023-05-19T13:08:31;5.22;;;3.65;;
80237;SDS011;69544;42.138;24.742;2023-05-19T13:10:57;5.28;;;3.70;;
80237;SDS011;69544;42.138;24.742;2023-05-19T13:13:23;5.60;;;3.60;;
80237;SDS011;69544;42.138;24.742;2023-05-19T13:15:49;5.25;;;3.50;;
80237;SDS011;69544;42.138;24.742;2023-05-19T13:18:15;5.53;;;3.85;;
80237;SDS011;69544;42.138;24.742;2023-05-19T13:20:42;4.78;;;3.88;;
80237;SDS011;69544;42.138;24.742;2023-05-19T13:23:09;4.72;;;3.55;;
80237;SDS011;69544;42.138;24.742;2023-05-19T13:25:35;5.10;;;3.58;;
80237;SDS011;69544;42.138;24.742;2023-05-19T13:28:01;4.82;;;3.30;;
80237;SDS011;69544;42.138;24.742;2023-05-19T13:30:36;5.22;;;3.50;;
80237;SDS011;69544;42.138;24.742;2023-05-19T13:33:03;5.68;;;3.55;;
80237;SDS011;69544;42.138;24.742;2023-05-19T13:35:29;5.28;;;3.67;;
80237;SDS011;69544;42.138;24.742;2023-05-19T13:40:35;4.55;;;3.50;;
80237;SDS011;69544;42.138;24.742;2023-05-19T13:43:01;5.43;;;3.38;;
80237;SDS011;69544;42.138;24.742;2023-05-19T13:45:27;4.65;;;3.47;;
80237;SDS011;69544;42.138;24.742;2023-05-19T13:47:53;5.65;;;3.70;;
80237;SDS011;69544;42.138;24.742;2023-05-19T13:50:19;4.80;;;3.45;;
80237;SDS011;69544;42.138;24.742;2023-05-19T13:52:44;5.35;;;3.83;;
80237;SDS011;69544;42.138;24.742;2023-05-19T13:55:11;4.95;;;3.50;;
80237;SDS011;69544;42.138;24.742;2023-05-19T13:57:36;4.75;;;3.47;;
80237;SDS011;69544;42.138;24.742;2023-05-19T14:00:02;4.85;;;3.60;;
80237;SDS011;69544;42.138;24.742;2023-05-19T14:02:29;4.63;;;3.40;;
80237;SDS011;69544;42.138;24.742;2023-05-19T14:04:57;7.43;;;3.92;;
80237;SDS011;69544;42.138;24.742;2023-05-19T14:07:23;4.70;;;3.30;;
80237;SDS011;69544;42.138;24.742;2023-05-19T14:09:49;4.72;;;3.70;;
80237;SDS011;69544;42.138;24.742;2023-05-19T14:12:16;5.30;;;3.72;;
80237;SDS011;69544;42.138;24.742;2023-05-19T14:14:41;4.60;;;3.60;;
80237;SDS011;69544;42.138;24.742;2023-05-19T14:17:07;5.22;;;3.63;;
80237;SDS011;69544;42.138;24.742;2023-05-19T14:19:33;5.30;;;3.63;;
80237;SDS011;69544;42.138;24.742;2023-05-19T14:21:59;4.85;;;3.50;;
80237;SDS011;69544;42.138;24.742;2023-05-19T14:24:24;4.95;;;3.60;;
80237;SDS011;69544;42.138;24.742;2023-05-19T14:26:50;5.03;;;3.60;;
80237;SDS011;69544;42.138;24.742;2023-05-19T14:29:17;5.20;;;3.45;;
80237;SDS011;69544;42.138;24.742;2023-05-19T14:31:43;4.68;;;3.60;;
80237;SDS011;69544;42.138;24.742;2023-05-19T14:34:08;5.70;;;3.65;;
80237;SDS011;69544;42.138;24.742;2023-05-19T14:36:34;4.45;;;3.47;;
80237;SDS011;69544;42.138;24.742;2023-05-19T14:39:00;5.93;;;3.72;;
80237;SDS011;69544;42.138;24.742;2023-05-19T14:41:26;5.35;;;3.70;;
80237;SDS011;69544;42.138;24.742;2023-05-19T14:43:51;4.78;;;3.53;;
80237;SDS011;69544;42.138;24.742;2023-05-19T14:46:17;5.20;;;3.50;;
80237;SDS011;69544;42.138;24.742;2023-05-19T14:48:43;5.10;;;3.70;;
80237;SDS011;69544;42.138;24.742;2023-05-19T14:51:09;4.15;;;3.40;;
80237;SDS011;69544;42.138;24.742;2023-05-19T14:53:34;4.35;;;3.50;;
80237;SDS011;69544;42.138;24.742;2023-05-19T14:56:00;4.90;;;3.60;;
80237;SDS011;69544;42.138;24.742;2023-05-19T14:58:28;5.32;;;3.53;;